• Join FlightAware (Why Join?)
  • Login
  • US Flag 
02:13AM EDT


 

Airport Tracker/Info


-or-


 

Live Flight TrackerFlight Track Log ✈ N48VC ✈ 14-May-2013 ✈ KATL - KPEA

Flight Track Log - Related Links

Times and Time Zones

All times are in EDT time to prevent confusion due to time zone crossing. See the N48VC flight status page for this flight to view local times or setup timezone preferences in your user account.

Time Position Orientation Groundspeed Altitude Reporting Facility
EDT Latitude Longitude Course Direction KTS MPH feet Rate Location/Type
02:46PM 33.6500 -84.4833 342° North 168 193 3,100  Level Atlanta TRACON
02:47PM 33.6667 -84.5167 301° West 202 232 4,600 2,040 Climbing Atlanta TRACON
02:48PM 33.7000 -84.5833 301° West 223 257 7,000 1,680 Climbing Atlanta TRACON
02:50PM 33.8369 -84.5839 360° North 263 303 9,500 1,380 Climbing Atlanta Center
02:51PM 33.9142 -84.5919 355° North 268 308 11,000 1,320 Climbing Atlanta Center
02:52PM 34.0372 -84.6281 342° North  Level FlightAware Approximate
02:52PM 33.9808 -84.6150 344° North 273 314 12,200  Level Atlanta Center
02:53PM 34.0517 -84.6406 343° North 273 314 14,000 1,500 Climbing Atlanta Center
02:54PM 34.1203 -84.6636 344° North 262 302 15,200 1,260 Climbing Atlanta Center
02:55PM 34.1953 -84.6917 343° North 268 308 16,600 1,200 Climbing Atlanta Center
02:56PM 34.2661 -84.7175 343° North 268 308 17,700 900 Climbing Atlanta Center
02:57PM 34.3453 -84.7533 340° North 268 308 18,400 900 Climbing Atlanta Center
02:58PM 34.4222 -84.7892 339° North 277 319 19,600 1,080 Climbing Atlanta Center
02:59PM 34.4972 -84.8200 341° North 282 325 20,600 960 Climbing Atlanta Center
03:00PM 34.5764 -84.8536 341° North 292 336 21,600 900 Climbing Atlanta Center
03:01PM 34.6553 -84.8897 339° North 292 336 22,500 900 Climbing Atlanta Center
03:02PM 34.7239 -84.9208 340° North 292 336 23,400 840 Climbing Atlanta Center
03:03PM 34.8092 -84.9597 339° North 292 336 24,200 720 Climbing Atlanta Center
03:04PM 34.8925 -84.9958 340° North 292 336 24,900 720 Climbing Atlanta Center
03:05PM 34.9714 -85.0322 339° North 297 342 25,700 840 Climbing Atlanta Center
03:06PM 35.0525 -85.0689 340° North 302 348 26,600 900 Climbing Atlanta Center
03:07PM 35.1294 -85.1156 334° Northwest 307 353 27,500 900 Climbing Atlanta Center
03:08PM 35.1831 -85.1900 311° West 300 345 28,400 780 Climbing Atlanta Center
03:09PM 35.2406 -85.2669 312° West 300 345 29,100 600 Climbing Atlanta Center
03:10PM 35.2983 -85.3442 313° West 306 352 29,600 480 Climbing Atlanta Center
03:11PM 35.3558 -85.4242 311° West 312 359 30,100 480 Climbing Atlanta Center
03:12PM 35.3931 -85.4722 314° West 323 372 30,400 480 Climbing Memphis Center
03:13PM 35.4567 -85.5525 314° West 323 372 30,900 600 Climbing Memphis Center
03:14PM 35.5139 -85.6358 310° West 323 372 31,600 660 Climbing Memphis Center
03:15PM 35.5756 -85.7167 313° West 323 372 32,300 660 Climbing Memphis Center
03:16PM 35.6328 -85.7978 311° West 323 372 33,000 600 Climbing Memphis Center
03:17PM 35.6894 -85.8711 314° West 323 372 33,600 600 Climbing Memphis Center
03:18PM 35.7508 -85.9547 312° West 323 372 34,300 600 Climbing Memphis Center
03:19PM 35.8081 -86.0336 312° West 318 366 34,900 540 Climbing Memphis Center
03:20PM 35.8692 -86.1150 313° West 318 366 35,400 480 Climbing Memphis Center
03:21PM 35.9303 -86.1964 313° West 324 373 35,900 300 Climbing Memphis Center
03:22PM 35.9894 -86.2806 311° West 324 373 36,000  Climbing Memphis Center
03:23PM 36.0528 -86.3700 311° West 331 381 36,000  Level Memphis Center
03:24PM 36.1225 -86.4642 313° West 336 387 36,000  Level Memphis Center
03:25PM 36.1900 -86.5561 312° West 349 402 36,000  Level Memphis Center
03:27PM 36.3181 -86.7303 312° West 349 402 36,000  Level Memphis Center
03:28PM 36.3750 -86.8206 308° West 344 396 36,000  Level Memphis Center
03:29PM 36.4400 -86.9081 313° West 344 396 36,000  Level Memphis Center
03:30PM 36.5028 -86.9906 313° West 359 413 36,000  Level Memphis Center
03:31PM 36.5675 -87.0808 312° West 338 389 36,000  Level Memphis Center
03:32PM 36.6283 -87.1664 312° West 333 383 36,000  Level Memphis Center
03:33PM 36.6867 -87.2519 310° West 326 375 36,000  Level Memphis Center
03:34PM 36.7492 -87.3325 314° West 326 375 36,000  Level Memphis Center
03:35PM 36.8175 -87.4075 319° Northwest 326 375 36,000  Level Memphis Center
03:36PM 36.8839 -87.4831 318° Northwest 321 369 36,000  Level Memphis Center
03:37PM 36.9481 -87.5533 319° Northwest 321 369 36,000  Level Memphis Center
03:38PM 37.0142 -87.6264 319° Northwest 321 369 36,000  Level Memphis Center
03:39PM 37.0806 -87.6994 319° Northwest 321 369 36,000  Level Memphis Center
03:40PM 37.1403 -87.7625 320° Northwest 316 364 36,000  Level Memphis Center
03:41PM 37.2042 -87.8361 317° Northwest 316 364 36,000  Level Memphis Center
03:42PM 37.2786 -87.9197 318° Northwest 326 375 36,000  Level Memphis Center
03:43PM 37.3428 -87.9933 318° Northwest 326 375 36,000  Level Memphis Center
03:44PM 37.4108 -88.0669 319° Northwest 319 367 36,000  Level Memphis Center
03:46PM 37.5097 -88.1797 318° Northwest 315 362 36,000  Level Kansas City Center
03:47PM 37.5881 -88.2686 318° Northwest 315 362 36,000  Level Kansas City Center
03:48PM 37.6525 -88.3431 318° Northwest 313 360 36,000  Level Kansas City Center
03:49PM 37.7175 -88.4172 318° Northwest 313 360 36,000  Level Kansas City Center
03:50PM 37.7867 -88.4936 319° Northwest 320 368 36,000  Level Kansas City Center
03:51PM 37.8508 -88.5683 317° Northwest 314 361 36,000  Level Kansas City Center
03:52PM 37.9164 -88.6431 318° Northwest 314 361 36,000  Level Kansas City Center
03:53PM 37.9894 -88.7264 318° Northwest 315 362 36,000  Level Kansas City Center
03:54PM 38.0547 -88.8019 318° Northwest 317 365 36,000  Level Kansas City Center
03:55PM 38.1192 -88.8761 318° Northwest 316 364 36,000  Level Kansas City Center
03:56PM 38.1839 -88.9522 317° Northwest 316 364 36,000  Level Kansas City Center
03:57PM 38.2589 -89.0400 317° Northwest 317 365 36,000  Level Kansas City Center
03:58PM 38.3283 -89.1208 318° Northwest 315 362 36,000  Level Kansas City Center
03:59PM 38.3939 -89.1967 318° Northwest 318 366 36,000  Level Kansas City Center
04:00PM 38.4636 -89.2789 317° Northwest 318 366 36,000  Level Kansas City Center
04:01PM 38.5286 -89.3542 318° Northwest 317 365 36,000  Level Kansas City Center
04:02PM 38.5983 -89.4356 318° Northwest 317 365 36,000  Level Kansas City Center
04:03PM 38.6628 -89.5114 317° Northwest 315 362 36,000  Level Kansas City Center
04:04PM 38.7314 -89.5933 317° Northwest 315 362 36,000  Level Kansas City Center
04:05PM 38.7906 -89.6644 317° Northwest 315 362 36,000  Level Kansas City Center
04:06PM 38.8531 -89.7389 317° Northwest 311 358 36,000  Level Kansas City Center
04:07PM 38.9272 -89.8278 317° Northwest 315 362 36,000  Level Kansas City Center
04:08PM 38.9953 -89.9108 317° Northwest 316 364 36,000  Level Kansas City Center
04:09PM 39.0567 -89.9836 317° Northwest 314 361 36,000  Level Kansas City Center
04:10PM 39.1197 -90.0586 317° Northwest 311 358 36,000  Level Kansas City Center
04:11PM 39.1828 -90.1344 317° Northwest 313 360 36,000  Level Kansas City Center
04:13PM 39.2461 -90.2117 317° Northwest 314 361 36,000 -240 Level Kansas City Center
04:14PM 39.3233 -90.3053 317° Northwest 318 366 35,600 -480 Descending Kansas City Center
04:15PM 39.3900 -90.3869 317° Northwest 326 375 35,100 -300 Descending Kansas City Center
04:16PM 39.4567 -90.4694 316° Northwest 331 381 35,000 -60 Descending Kansas City Center
04:17PM 39.5239 -90.5503 317° Northwest 332 382 35,000  Level Kansas City Center
04:18PM 39.5889 -90.6292 317° Northwest 327 376 35,000  Level Kansas City Center
04:19PM 39.6539 -90.7092 317° Northwest 324 373 35,000  Level Kansas City Center
04:20PM 39.7308 -90.8067 316° Northwest 324 373 35,000  Level Kansas City Center
04:21PM 39.7967 -90.8869 317° Northwest 322 371 35,000  Level Kansas City Center
04:22PM 39.8650 -90.9708 317° Northwest 322 371 35,000  Level Kansas City Center
04:23PM 39.9286 -91.0517 316° Northwest 322 371 35,000  Level Kansas City Center
04:24PM 39.9925 -91.1311 316° Northwest 321 369 35,000  Level Kansas City Center
04:25PM 40.0564 -91.2114 316° Northwest 321 369 35,000  Level Kansas City Center
04:26PM 40.1186 -91.2903 316° Northwest 319 367 35,000  Level Kansas City Center
04:27PM 40.1961 -91.3881 316° Northwest 322 371 35,000 -420 Level Kansas City Center
04:28PM 40.2603 -91.4686 316° Northwest 323 372 34,200 -1,500 Descending Kansas City Center
04:29PM 40.3303 -91.5572 316° Northwest 341 392 32,000 -2,100 Descending Kansas City Center
04:30PM 40.4022 -91.6489 316° Northwest 356 410 29,900 -2,280 Descending Kansas City Center
04:31PM 40.4922 -91.7628 316° Northwest 371 427 27,300 -2,340 Descending Kansas City Center
04:32PM 40.5672 -91.8586 316° Northwest 378 435 25,100 -2,220 Descending Kansas City Center
04:33PM 40.6281 -91.9353 316° Northwest 379 436 23,400 -1,740 Descending Chicago Center
04:34PM 40.6994 -92.0275 316° Northwest 369 425 22,000 -720 Descending Chicago Center
04:35PM 40.7683 -92.1158 316° Northwest 355 409 22,000 -180 Level Chicago Center
04:36PM 40.8342 -92.2017 315° West 341 392 21,700 -1,260 Descending Chicago Center
04:37PM 40.9128 -92.3053 315° West 340 391 19,500 -2,460 Descending Chicago Center
04:38PM 40.9792 -92.3900 316° Northwest 337 388 16,700 -2,460 Descending Chicago Center
04:39PM 41.0394 -92.4692 315° West 313 360 14,500 -2,160 Descending Chicago Center
04:40PM 41.0981 -92.5464 315° West 302 348 12,300 -2,160 Descending Chicago Center
04:41PM 41.1556 -92.6194 316° Northwest 293 337 10,100 -2,280 Descending Chicago Center
04:42PM 41.2189 -92.7047 315° West 279 321 7,700 -2,040 Descending Chicago Center
04:43PM 41.2689 -92.7697 316° Northwest 262 302 5,900 -1,680 Descending Chicago Center
04:44PM 41.3256 -92.8178 328° Northwest 252 290 4,300 -1,740 Descending Chicago Center
04:45PM 41.3819 -92.8378 345° North 242 278 2,900 -1,560 Descending Minneapolis Center
04:45PM 41.3989 -92.8631 312° West 240 276 2,600 -540 Descending Minneapolis Center
04:46PM 41.4453 -92.9011 328° Northwest 190 219 2,200 -300 Descending Minneapolis Center
04:47PM 41.4697 -92.9517 303° West 178 205 2,100 -120 Descending Minneapolis Center